Time;durP1;ratioP1;P1;durP2;ratioP2;P2;SDS_P1;SDS_P2;PMS_P1;PMS_P2;Temp;Humidity;BMP_temperature;BMP_pressure;BME280_temperature;BME280_humidity;BME280_pressure;Samples;Min_cycle;Max_cycle;Signal;HPM_P1;HPM_P2
2022/03/01 07:27:44;;;;;;;12.93;9.53;;;;;;;3.49;40.83;100091.47;6955368;28;20221;-84
2022/03/01 07:31:07;;;;;;;13.37;8.93;;;;;;;4.07;38.81;100018.81;6964955;28;20219;-86
2022/03/01 07:34:32;;;;;;;14.00;9.03;;;;;;;4.09;39.45;100094.25;6972156;28;20207;-84
2022/03/01 07:37:54;;;;;;;11.70;9.07;;;;;;;4.21;39.64;100101.19;6968065;28;20223;-82
2022/03/01 07:41:15;;;;;;;13.77;9.67;;;;;;;4.78;38.57;100092.53;6956067;28;20240;-83
2022/03/01 07:44:37;;;;;;;14.90;9.20;;;;;;;4.96;37.61;100051.63;6955272;28;20246;-83
2022/03/01 07:48:01;;;;;;;12.63;8.00;;;;;;;5.65;36.37;100092.44;6975644;28;20354;-83
2022/03/01 07:51:23;;;;;;;13.23;9.17;;;;;;;5.39;36.79;100075.25;6971979;28;20307;-82
2022/03/01 07:54:45;;;;;;;11.77;8.70;;;;;;;5.53;37.21;100099.75;6975689;28;20650;-80
2022/03/01 07:58:06;;;;;;;12.87;9.03;;;;;;;5.03;37.81;100102.69;6971718;28;20298;-83
2022/03/01 08:01:28;;;;;;;13.83;9.80;;;;;;;4.88;38.50;100091.56;6972826;28;20321;-83
2022/03/01 08:04:51;;;;;;;12.17;8.80;;;;;;;5.09;37.72;100088.78;6976474;28;20304;-81
2022/03/01 08:08:13;;;;;;;11.57;8.93;;;;;;;5.78;36.90;100112.53;6975192;28;20770;-83
2022/03/01 08:11:35;;;;;;;14.83;9.43;;;;;;;6.01;36.82;100095.19;6976306;28;20234;-83
2022/03/01 08:14:57;;;;;;;13.40;8.37;;;;;;;6.87;35.29;100073.38;6977295;28;20202;-83
2022/03/01 08:18:18;;;;;;;13.33;8.47;;;;;;;7.09;34.71;100079.16;6976399;28;20203;-83
2022/03/01 08:21:41;;;;;;;14.13;9.13;;;;;;;7.13;34.22;100077.84;6977966;28;20310;-82
2022/03/01 08:25:03;;;;;;;15.23;9.10;;;;;;;6.66;35.41;100065.59;6978630;28;20581;-83
2022/03/01 08:28:25;;;;;;;12.63;8.77;;;;;;;8.24;34.20;100047.50;6958337;28;20230;-82
2022/03/01 08:31:47;;;;;;;10.10;7.90;;;;;;;7.66;32.96;100051.81;6950721;28;20242;-81
2022/03/01 08:35:09;;;;;;;11.97;9.10;;;;;;;6.27;35.12;100064.13;6951875;28;20293;-82
2022/03/01 08:38:32;;;;;;;11.50;8.10;;;;;;;5.98;35.15;100044.63;6950545;28;20207;-83
2022/03/01 08:41:55;;;;;;;11.37;8.83;;;;;;;5.81;36.30;99997.22;6948296;28;20223;-82
2022/03/01 08:45:16;;;;;;;13.90;8.00;;;;;;;6.92;34.44;100034.41;6950884;28;20286;-82
2022/03/01 08:48:38;;;;;;;11.53;8.10;;;;;;;7.96;33.27;100047.84;6974273;28;20258;-83
2022/03/01 08:52:00;;;;;;;14.27;8.43;;;;;;;8.41;31.91;100046.59;6958380;28;20622;-82
2022/03/01 08:55:23;;;;;;;13.30;8.77;;;;;;;8.58;31.52;100047.50;6946994;28;20278;-82
2022/03/01 08:58:45;;;;;;;13.50;8.30;;;;;;;7.67;33.06;100041.94;6948035;28;20291;-82
2022/03/01 09:02:07;;;;;;;10.33;8.30;;;;;;;6.73;33.80;100047.91;6947183;28;20254;-83
2022/03/01 09:05:28;;;;;;;11.83;8.20;;;;;;;8.32;32.23;100033.28;6948200;28;20196;-82
2022/03/01 09:08:50;;;;;;;12.83;8.30;;;;;;;7.57;32.77;99985.66;6949163;28;20229;-82
2022/03/01 09:12:13;;;;;;;10.87;7.73;;;;;;;7.94;33.23;100018.44;6947165;28;20241;-82
2022/03/01 09:15:35;;;;;;;12.70;9.00;;;;;;;7.48;32.66;100017.97;6947475;28;20217;-82
2022/03/01 09:18:56;;;;;;;9.30;7.37;;;;;;;8.39;31.92;100024.44;6948167;28;20207;-81
2022/03/01 09:22:18;;;;;;;10.07;7.20;;;;;;;10.71;29.19;100008.16;6958203;28;20720;-81
2022/03/01 09:25:39;;;;;;;9.50;7.63;;;;;;;9.49;28.76;100013.19;6975691;28;20209;-82
2022/03/01 09:29:02;;;;;;;10.93;8.00;;;;;;;9.80;29.62;100006.91;6958727;28;20230;-82
2022/03/01 09:32:25;;;;;;;12.17;8.73;;;;;;;10.93;27.60;100000.09;6969098;28;20231;-82
2022/03/01 09:35:47;;;;;;;11.10;7.43;;;;;;;8.61;32.02;100010.38;6945616;28;20219;-81
2022/03/01 09:39:09;;;;;;;11.40;8.53;;;;;;;8.01;32.32;100005.22;6944517;28;20210;-82
2022/03/01 09:42:31;;;;;;;11.67;8.23;;;;;;;7.93;32.68;99989.06;6945136;28;20372;-81
2022/03/01 09:45:54;;;;;;;10.47;8.57;;;;;;;8.17;31.57;99871.84;6945055;28;20211;-81
2022/03/01 09:49:17;;;;;;;14.00;7.87;;;;;;;8.68;30.80;99960.34;6946732;28;20227;-80
2022/03/01 09:52:47;;;;;;;11.67;8.03;;;;;;;9.42;30.59;99966.41;6963663;28;20821;-80
2022/03/01 09:56:09;;;;;;;11.27;8.77;;;;;;;10.08;29.29;99967.81;6971014;28;20202;-81
2022/03/01 09:59:31;;;;;;;10.17;8.00;;;;;;;9.51;29.67;99971.63;6971227;28;20206;-81
2022/03/01 10:02:56;;;;;;;14.90;8.87;;;;;;;9.61;29.79;99966.06;6977832;28;20233;-81
2022/03/01 10:06:19;;;;;;;34.57;16.53;;;;;;;10.13;31.07;99953.81;6978740;28;20214;-81
2022/03/01 10:09:41;;;;;;;14.03;8.33;;;;;;;11.42;27.44;99954.66;6979748;28;20230;-81
2022/03/01 10:13:03;;;;;;;11.23;7.37;;;;;;;10.31;27.19;99943.63;6957220;28;20227;-81
2022/03/01 10:16:25;;;;;;;13.03;7.67;;;;;;;9.80;27.38;99960.31;6951358;28;20692;-83
2022/03/01 10:19:48;;;;;;;9.17;6.80;;;;;;;10.81;26.63;99971.84;6957662;28;20236;-84
2022/03/01 10:27:07;;;;;;;8.10;6.70;;;;;;;11.68;25.57;99936.22;6955203;28;20202;-82
2022/03/01 10:30:31;;;;;;;8.10;6.53;;;;;;;12.32;24.51;99940.84;6976654;28;20191;-84
2022/03/01 10:33:57;;;;;;;9.07;6.43;;;;;;;11.47;23.78;99927.97;6971435;28;20693;-83
2022/03/01 10:37:27;;;;;;;9.30;6.90;;;;;;;11.97;24.00;99903.78;6970841;28;20202;-80
2022/03/01 10:40:57;;;;;;;9.27;7.10;;;;;;;9.99;25.20;99923.00;6974331;28;20208;-85
2022/03/01 10:44:21;;;;;;;9.83;7.07;;;;;;;9.59;26.17;99949.25;6978593;28;20285;-85
2022/03/01 10:47:53;;;;;;;8.37;6.57;;;;;;;11.35;25.66;99921.31;6978570;28;20705;-83
2022/03/01 10:51:19;;;;;;;9.07;6.20;;;;;;;12.57;24.14;99931.41;6978220;28;20677;-87
2022/03/01 10:54:43;;;;;;;8.47;6.73;;;;;;;11.54;24.46;99928.91;6985935;28;20206;-87
2022/03/01 10:58:07;;;;;;;9.50;6.50;;;;;;;11.87;25.19;99924.88;6982407;28;20203;-88
2022/03/01 11:01:28;;;;;;;10.87;6.50;;;;;;;13.20;24.00;99915.22;6975867;28;20309;-87
2022/03/01 11:04:51;;;;;;;11.03;7.47;;;;;;;13.18;22.77;99915.44;6974231;28;20198;-85
2022/03/01 11:08:13;;;;;;;7.83;6.67;;;;;;;13.86;21.79;99901.97;6978511;28;20222;-87
2022/03/01 11:11:37;;;;;;;7.33;5.67;;;;;;;13.55;21.95;99890.72;6970174;28;20249;-87
2022/03/01 11:15:04;;;;;;;7.27;6.50;;;;;;;13.75;22.10;99896.28;6974970;28;20250;-85
2022/03/01 11:18:35;;;;;;;7.50;6.00;;;;;;;13.72;21.59;99900.22;6978257;28;20191;-87
2022/03/01 11:21:57;;;;;;;9.13;6.93;;;;;;;12.74;23.43;99882.25;6974954;28;20230;-87
2022/03/01 11:25:21;;;;;;;8.40;7.03;;;;;;;11.26;23.82;99909.75;6974910;28;20199;-86
2022/03/01 11:28:53;;;;;;;7.90;6.30;;;;;;;12.60;23.22;99868.78;6973262;28;20259;-87
2022/03/01 11:32:17;;;;;;;7.57;6.43;;;;;;;12.97;23.21;99888.34;6972083;28;20295;-85
2022/03/01 11:35:42;;;;;;;7.93;6.27;;;;;;;12.43;23.09;99870.91;6973312;28;20199;-84
2022/03/01 11:39:12;;;;;;;7.90;6.83;;;;;;;12.94;22.83;99877.06;6972909;28;20204;-85
2022/03/01 11:42:34;;;;;;;9.17;7.10;;;;;;;11.05;23.51;99876.38;6972286;28;20826;-85
2022/03/01 11:45:59;;;;;;;9.97;6.77;;;;;;;10.68;24.69;99877.19;6973088;28;20289;-84
2022/03/01 11:49:22;;;;;;;7.87;6.50;;;;;;;10.59;25.34;99885.50;6977215;28;20227;-83
2022/03/01 11:52:52;;;;;;;8.47;6.07;;;;;;;11.34;24.44;99874.56;6975339;28;20230;-85
2022/03/01 11:56:14;;;;;;;6.93;6.03;;;;;;;11.99;23.80;99864.72;6976433;28;20190;-84
2022/03/01 11:59:37;;;;;;;7.50;6.77;;;;;;;11.89;23.77;99861.50;6977598;28;20238;-83
2022/03/01 12:03:01;;;;;;;8.63;6.40;;;;;;;12.12;23.63;99848.72;6977387;28;20222;-83
2022/03/01 12:06:23;;;;;;;8.20;6.80;;;;;;;12.71;22.98;99849.34;6977790;28;20211;-84
2022/03/01 12:09:54;;;;;;;8.23;6.47;;;;;;;11.82;23.68;99816.50;6974713;28;20999;-85
2022/03/01 12:13:15;;;;;;;7.40;6.30;;;;;;;11.99;22.96;99853.09;6973747;28;20226;-79
2022/03/01 12:16:38;;;;;;;8.43;7.07;;;;;;;12.90;21.95;99829.75;6972812;28;20214;-82
2022/03/01 12:20:02;;;;;;;8.37;7.20;;;;;;;12.77;21.88;99854.84;6972983;28;20223;-81
2022/03/01 12:23:29;;;;;;;10.07;7.30;;;;;;;13.51;20.83;99832.53;6971282;28;20230;-81
2022/03/01 12:26:52;;;;;;;10.40;6.33;;;;;;;12.49;21.77;99782.72;6975200;28;20207;-81
2022/03/01 12:30:14;;;;;;;7.27;6.30;;;;;;;12.68;22.25;99836.22;6976623;28;20232;-82
2022/03/01 12:33:36;;;;;;;8.50;6.70;;;;;;;12.41;22.33;99845.06;6977018;28;20268;-82
2022/03/01 12:37:01;;;;;;;9.03;6.90;;;;;;;12.21;22.67;99819.69;6976133;28;20206;-83
2022/03/01 12:40:26;;;;;;;9.53;6.60;;;;;;;13.65;21.03;99830.75;6975958;28;20207;-82
2022/03/01 12:43:52;;;;;;;7.77;6.23;;;;;;;13.75;19.78;99837.47;6976158;28;20223;-82
2022/03/01 12:47:14;;;;;;;7.63;6.53;;;;;;;11.24;22.54;99840.78;6975308;28;20188;-83
2022/03/01 12:50:36;;;;;;;9.67;7.27;;;;;;;11.69;21.40;99827.13;6972623;28;20695;-83
2022/03/01 12:54:01;;;;;;;6.97;6.17;;;;;;;12.65;21.05;99832.03;6971739;28;20326;-83
2022/03/01 12:57:22;;;;;;;8.43;6.40;;;;;;;13.63;21.17;99822.81;6972175;28;20219;-83
2022/03/01 13:00:44;;;;;;;8.13;6.60;;;;;;;13.10;21.31;99814.53;6971964;28;20289;-83
2022/03/01 13:04:07;;;;;;;7.40;6.50;;;;;;;13.25;20.37;99775.50;6971714;28;20255;-83
2022/03/01 13:07:34;;;;;;;8.63;6.97;;;;;;;13.42;20.31;99806.66;6972381;28;20212;-83
2022/03/01 13:10:57;;;;;;;8.00;6.10;;;;;;;14.02;20.46;99786.91;6970854;28;20244;-83
2022/03/01 13:14:21;;;;;;;10.40;8.07;;;;;;;14.72;19.38;99760.16;6972285;28;20215;-83
2022/03/01 13:17:51;;;;;;;7.07;6.27;;;;;;;14.39;20.00;99749.28;6975801;28;20207;-84
2022/03/01 13:21:13;;;;;;;7.90;6.40;;;;;;;13.78;19.47;99754.91;6976579;28;20192;-84
2022/03/01 13:24:36;;;;;;;7.50;6.47;;;;;;;14.47;20.01;99776.25;6972717;28;20207;-83
2022/03/01 13:27:59;;;;;;;7.17;6.47;;;;;;;14.68;18.90;99762.47;6975336;28;20294;-81
2022/03/01 13:31:23;;;;;;;8.83;6.50;;;;;;;13.15;19.71;99760.63;6977132;28;20631;-81
2022/03/01 13:34:46;;;;;;;15.87;6.37;;;;;;;12.60;20.29;99765.97;6977328;28;20660;-82
2022/03/01 13:38:14;;;;;;;9.67;6.43;;;;;;;13.04;20.40;99726.81;6982968;28;20232;-86
2022/03/01 13:41:41;;;;;;;8.27;6.43;;;;;;;13.64;19.35;99761.31;6997557;28;20621;-83
2022/03/01 13:45:24;;;;;;;7.57;6.33;;;;;;;13.81;18.87;99708.44;6982656;28;20217;-82
2022/03/01 13:48:47;;;;;;;6.77;6.00;;;;;;;12.93;19.58;99702.13;6938745;28;20253;-81
2022/03/01 13:52:16;;;;;;;8.53;6.57;;;;;;;13.03;19.91;99754.06;6970823;28;20707;-83
2022/03/01 13:55:39;;;;;;;8.23;6.63;;;;;;;12.77;19.04;99756.56;6972191;28;20209;-81
2022/03/01 13:59:03;;;;;;;7.57;6.53;;;;;;;13.37;19.87;99737.84;6972131;28;20210;-82
2022/03/01 14:02:27;;;;;;;8.13;6.60;;;;;;;13.71;19.74;99729.66;6979131;28;20225;-80
2022/03/01 14:05:55;;;;;;;6.87;6.17;;;;;;;13.96;18.87;99763.31;6979497;28;20216;-83
2022/03/01 14:09:16;;;;;;;8.70;7.00;;;;;;;14.13;19.32;99753.78;6975502;28;20690;-82
2022/03/01 14:12:43;;;;;;;8.10;6.27;;;;;;;13.85;19.13;99744.94;6974802;28;20237;-82
2022/03/01 14:16:11;;;;;;;9.50;6.60;;;;;;;13.10;18.89;99688.09;6974626;28;20340;-83
2022/03/01 14:19:34;;;;;;;6.97;5.90;;;;;;;13.68;18.92;99749.06;6974143;28;20203;-82
2022/03/01 14:22:56;;;;;;;8.10;6.77;;;;;;;13.45;19.28;99740.41;6974862;28;20724;-83
2022/03/01 14:26:18;;;;;;;9.00;6.73;;;;;;;13.71;18.80;99735.09;6974287;28;20204;-83
2022/03/01 14:29:39;;;;;;;6.70;6.00;;;;;;;13.43;18.74;99705.38;6974319;28;20724;-82
2022/03/01 14:33:01;;;;;;;8.20;6.53;;;;;;;13.78;19.42;99728.66;6975111;28;20722;-84
2022/03/01 14:36:24;;;;;;;11.00;7.00;;;;;;;13.50;19.51;99733.31;6975625;28;20209;-83
2022/03/01 14:39:46;;;;;;;8.43;7.37;;;;;;;12.67;19.91;99726.28;6974254;28;20199;-83
2022/03/01 14:43:08;;;;;;;8.20;6.20;;;;;;;13.20;20.34;99657.94;6974342;28;20234;-82
2022/03/01 14:46:30;;;;;;;7.80;6.70;;;;;;;13.18;20.23;99706.91;6972693;28;20242;-82
2022/03/01 14:49:52;;;;;;;10.47;7.50;;;;;;;12.37;21.23;99717.50;6976416;28;20704;-82
2022/03/01 14:53:15;;;;;;;8.03;7.00;;;;;;;13.24;20.30;99713.38;6971879;28;20233;-81
2022/03/01 14:56:38;;;;;;;9.57;7.07;;;;;;;13.14;20.26;99712.91;6975555;28;20590;-82
2022/03/01 14:59:59;;;;;;;9.23;6.73;;;;;;;13.08;20.35;99719.97;6973110;28;20208;-82
2022/03/01 15:03:22;;;;;;;9.67;6.93;;;;;;;12.36;20.90;99717.69;6974648;28;20226;-82
2022/03/01 15:06:43;;;;;;;8.50;6.83;;;;;;;13.57;20.58;99707.09;6969027;28;20215;-82
2022/03/01 15:10:07;;;;;;;9.90;6.73;;;;;;;14.03;19.38;99707.22;6978617;28;20262;-83
2022/03/01 15:13:28;;;;;;;8.67;6.80;;;;;;;13.06;20.15;99692.28;6978198;28;20231;-83
2022/03/01 15:16:50;;;;;;;9.17;7.07;;;;;;;13.03;20.41;99657.47;6979757;28;20570;-83
2022/03/01 15:20:14;;;;;;;7.70;6.57;;;;;;;13.91;19.58;99703.44;6979827;28;20214;-83
2022/03/01 15:23:35;;;;;;;9.37;7.20;;;;;;;12.29;21.19;99722.22;6979695;28;20235;-83
2022/03/01 15:26:59;;;;;;;9.87;6.73;;;;;;;13.36;20.26;99711.78;6977761;28;20210;-83
2022/03/01 15:30:22;;;;;;;8.87;6.20;;;;;;;13.55;20.99;99722.72;6979112;28;20225;-82
2022/03/01 15:33:43;;;;;;;13.20;7.00;;;;;;;13.40;19.72;99700.34;6978971;28;20230;-83
2022/03/01 15:37:05;;;;;;;7.07;6.37;;;;;;;13.58;19.78;99735.03;6978833;28;20218;-82
2022/03/01 15:40:28;;;;;;;8.70;6.73;;;;;;;13.18;19.74;99738.56;6979477;28;20216;-83
2022/03/01 15:43:51;;;;;;;7.87;6.33;;;;;;;13.70;19.37;99744.25;6976546;28;20604;-82
2022/03/01 15:47:13;;;;;;;7.77;6.33;;;;;;;13.29;20.20;99735.31;7002276;28;20210;-82
2022/03/01 15:50:35;;;;;;;7.50;6.53;;;;;;;13.53;19.13;99692.28;6984720;28;20230;-82
2022/03/01 15:54:01;;;;;;;9.10;6.80;;;;;;;13.53;20.53;99734.78;6983638;28;20224;-82
2022/03/01 15:57:23;;;;;;;7.53;6.43;;;;;;;13.56;19.79;99740.66;7007838;28;20252;-81
2022/03/01 16:00:46;;;;;;;8.23;6.37;;;;;;;13.45;19.87;99748.53;7006335;28;20210;-83
2022/03/01 16:04:07;;;;;;;9.73;6.70;;;;;;;13.74;19.27;99745.53;7007822;28;20221;-81
2022/03/01 16:07:29;;;;;;;7.70;6.70;;;;;;;13.55;20.20;99751.69;7009341;28;20219;-85
2022/03/01 16:10:51;;;;;;;8.97;6.53;;;;;;;13.87;20.05;99751.00;7004404;28;20367;-81
2022/03/01 16:14:12;;;;;;;9.30;6.57;;;;;;;13.87;20.08;99738.25;7004804;28;20283;-82
2022/03/01 16:17:35;;;;;;;9.50;7.00;;;;;;;13.74;20.22;99737.41;7004351;28;20201;-81
2022/03/01 16:20:57;;;;;;;11.53;6.33;;;;;;;13.71;20.70;99724.25;7004448;28;20198;-81
2022/03/01 16:24:18;;;;;;;9.30;6.80;;;;;;;13.84;22.08;99733.25;7001805;28;20277;-81
2022/03/01 16:27:40;;;;;;;8.80;6.47;;;;;;;13.60;22.47;99731.09;6965074;28;20214;-81
2022/03/01 16:31:02;;;;;;;8.80;6.83;;;;;;;13.44;22.97;99723.28;6975968;28;20269;-81
2022/03/01 16:34:25;;;;;;;7.57;6.20;;;;;;;13.19;23.60;99729.41;6976554;28;20210;-80
2022/03/01 16:37:48;;;;;;;8.80;6.33;;;;;;;13.17;23.81;99736.91;6977490;28;20214;-81
2022/03/01 16:41:09;;;;;;;7.57;5.87;;;;;;;12.99;23.82;99723.84;6976427;28;20202;-81
2022/03/01 16:44:31;;;;;;;8.70;6.97;;;;;;;12.57;24.74;99731.22;6978053;28;20231;-81
2022/03/01 16:47:52;;;;;;;12.03;8.80;;;;;;;12.53;25.19;99721.81;6979491;28;20569;-81
2022/03/01 16:51:16;;;;;;;21.53;10.13;;;;;;;12.19;26.70;99738.75;6981909;28;20219;-84
2022/03/01 16:54:40;;;;;;;9.63;7.50;;;;;;;12.11;27.01;99743.47;6966616;28;20213;-84
2022/03/01 16:58:02;;;;;;;9.20;6.33;;;;;;;11.68;26.78;99677.72;6993542;28;20209;-82
2022/03/01 17:01:23;;;;;;;9.53;6.30;;;;;;;11.02;28.11;99679.75;6996596;28;20218;-82
2022/03/01 17:04:45;;;;;;;10.93;6.67;;;;;;;11.23;28.61;99744.63;6995883;28;20213;-82
2022/03/01 17:08:09;;;;;;;9.97;6.97;;;;;;;10.85;29.13;99756.47;6977251;28;20203;-84
2022/03/01 17:11:31;;;;;;;11.47;6.97;;;;;;;10.67;29.46;99761.38;6976397;28;20239;-85
2022/03/01 17:14:52;;;;;;;9.50;6.50;;;;;;;10.44;30.13;99739.00;6978140;28;20206;-84
2022/03/01 17:18:14;;;;;;;14.03;7.80;;;;;;;10.82;29.93;99764.97;6976641;28;20211;-84
2022/03/01 17:21:36;;;;;;;9.83;7.43;;;;;;;10.62;30.28;99764.63;6976947;28;20237;-84
2022/03/01 17:24:59;;;;;;;11.07;7.50;;;;;;;10.39;31.08;99757.59;6976736;28;20237;-84
2022/03/01 17:32:33;;;;;;;12.33;8.80;;;;;;;9.33;32.59;99703.72;6972540;28;20249;-84
2022/03/01 17:35:55;;;;;;;12.73;7.17;;;;;;;9.01;33.51;99713.75;6969302;28;20221;-84
2022/03/01 17:39:25;;;;;;;12.20;8.13;;;;;;;9.16;33.95;99777.44;6978068;28;20238;-84
2022/03/01 17:42:49;;;;;;;11.33;8.63;;;;;;;9.52;33.64;99765.19;6977033;28;20463;-84
2022/03/01 17:46:11;;;;;;;11.27;7.33;;;;;;;9.07;33.43;99699.63;6975317;28;20209;-89
2022/03/01 17:49:36;;;;;;;10.53;8.13;;;;;;;8.82;34.73;99751.78;6979566;28;20628;-86
2022/03/01 17:52:58;;;;;;;10.43;8.43;;;;;;;8.45;35.19;99762.25;6976594;28;20269;-86
2022/03/01 17:56:20;;;;;;;11.80;7.83;;;;;;;8.26;35.35;99717.72;6978408;28;20207;-87
2022/03/01 17:59:44;;;;;;;10.43;8.23;;;;;;;7.90;36.57;99735.13;6978064;28;20205;-89
2022/03/01 18:03:06;;;;;;;12.97;7.40;;;;;;;8.51;35.19;99732.84;6974905;28;20566;-85
2022/03/01 18:15:42;;;;;;;14.17;7.93;;;;;;;7.78;36.79;99741.00;6977682;28;20182;-85
2022/03/01 18:19:07;;;;;;;10.70;8.20;;;;;;;8.05;35.97;99705.78;6980663;28;20221;-85
2022/03/01 18:22:29;;;;;;;9.90;7.57;;;;;;;8.29;35.52;99735.38;6980081;28;20234;-86
2022/03/01 18:25:53;;;;;;;15.27;8.90;;;;;;;8.54;34.60;99742.44;6988774;28;20209;-85
2022/03/01 18:29:17;;;;;;;13.37;9.20;;;;;;;8.30;34.18;99739.75;6976187;28;20228;-85
2022/03/01 18:32:41;;;;;;;14.83;8.40;;;;;;;8.14;33.64;99678.75;6982214;28;20221;-85
2022/03/01 18:36:05;;;;;;;15.33;9.47;;;;;;;8.63;33.65;99728.81;6984352;28;20218;-87
2022/03/01 18:39:29;;;;;;;14.47;9.50;;;;;;;8.40;34.78;99752.00;6974338;28;20207;-90
2022/03/01 18:42:54;;;;;;;14.70;9.40;;;;;;;7.84;36.43;99748.41;6979736;28;20253;-88
2022/03/01 18:46:19;;;;;;;11.83;8.57;;;;;;;8.11;36.24;99764.19;6987117;28;20217;-86
2022/03/01 18:49:45;;;;;;;14.40;9.43;;;;;;;6.89;37.54;99680.84;6976175;28;20231;-89
2022/03/01 18:53:10;;;;;;;10.33;7.90;;;;;;;7.71;37.34;99759.59;6979207;28;20308;-85
2022/03/01 19:00:49;;;;;;;10.63;8.07;;;;;;;7.16;37.91;99704.75;6955531;28;20207;-87
2022/03/01 19:04:20;;;;;;;12.40;8.50;;;;;;;7.25;37.73;99743.19;6980737;28;20228;-86
2022/03/01 19:08:06;;;;;;;14.03;9.00;;;;;;;6.45;39.17;99759.63;6988389;28;20222;-86
2022/03/01 19:11:29;;;;;;;11.07;8.83;;;;;;;5.58;40.43;99680.19;6981665;28;20241;-88
2022/03/01 19:14:50;;;;;;;13.13;9.20;;;;;;;6.71;38.86;99730.19;6974831;28;20348;-88
2022/03/01 19:18:12;;;;;;;15.47;12.07;;;;;;;6.37;39.45;99702.47;6975665;28;20210;-87
2022/03/01 19:21:34;;;;;;;14.73;9.57;;;;;;;6.51;38.81;99685.81;6975580;28;20275;-88
2022/03/01 19:24:57;;;;;;;13.10;8.37;;;;;;;6.80;38.33;99703.25;6975261;28;20206;-89
2022/03/01 19:28:19;;;;;;;13.30;9.23;;;;;;;6.59;38.43;99694.75;6975196;28;20776;-87
2022/03/01 19:31:41;;;;;;;13.33;9.50;;;;;;;6.46;39.18;99720.28;6981430;28;20238;-86
2022/03/01 19:35:03;;;;;;;42.83;21.40;;;;;;;6.31;40.12;99783.44;6967482;28;20224;-84
2022/03/01 19:38:25;;;;;;;21.80;12.87;;;;;;;5.68;42.48;99675.63;6963788;28;20602;-89
2022/03/01 19:41:49;;;;;;;18.13;10.73;;;;;;;6.33;42.32;99765.38;6988291;28;20245;-89
2022/03/01 19:45:13;;;;;;;17.87;11.97;;;;;;;6.02;41.30;99762.25;6986593;28;20216;-88
2022/03/01 19:48:35;;;;;;;18.47;10.80;;;;;;;5.20;42.24;99693.81;6986284;28;20209;-89
2022/03/01 19:51:57;;;;;;;12.27;10.27;;;;;;;4.92;42.56;99710.88;6985401;28;20724;-87
2022/03/01 19:55:21;;;;;;;15.80;10.50;;;;;;;5.48;42.30;99778.38;6990858;28;20216;-88
2022/03/01 19:58:45;;;;;;;16.30;11.53;;;;;;;5.18;42.04;99692.31;6989736;28;20212;-86
2022/03/01 20:02:12;;;;;;;20.37;13.10;;;;;;;4.61;42.93;99730.78;6991721;28;20297;-87
2022/03/01 20:05:37;;;;;;;17.50;11.30;;;;;;;4.98;43.57;99766.38;6987060;28;20712;-85
2022/03/01 20:09:00;;;;;;;18.60;12.40;;;;;;;5.58;41.94;99781.00;6994123;28;20207;-87
2022/03/01 20:12:22;;;;;;;13.97;10.00;;;;;;;5.48;41.70;99756.97;6985483;28;20233;-87
2022/03/01 20:16:16;;;;;;;15.80;10.83;;;;;;;4.83;43.11;99754.47;6975900;28;20208;-87
2022/03/01 20:19:39;;;;;;;14.57;9.80;;;;;;;4.25;44.34;99722.75;6986367;28;20219;-89
2022/03/01 20:23:02;;;;;;;13.90;11.43;;;;;;;4.10;44.12;99697.47;6983085;28;20225;-90
2022/03/01 20:26:24;;;;;;;15.00;10.80;;;;;;;5.13;43.44;99780.13;6989826;28;20200;-88
2022/03/01 20:29:46;;;;;;;13.67;10.63;;;;;;;4.86;42.84;99735.50;6987246;28;20236;-87
2022/03/01 20:33:07;;;;;;;18.83;10.97;;;;;;;4.60;44.62;99760.34;6989739;28;20385;-87
2022/03/01 20:36:31;;;;;;;15.63;9.97;;;;;;;4.65;44.34;99766.91;6973484;28;20225;-88
2022/03/01 20:39:53;;;;;;;16.13;9.97;;;;;;;4.65;43.41;99745.53;6956886;28;20335;-89
2022/03/01 20:43:14;;;;;;;13.47;8.57;;;;;;;4.52;44.22;99753.03;6956109;28;20690;-88
2022/03/01 20:46:36;;;;;;;14.10;9.73;;;;;;;3.93;44.25;99684.84;6952483;28;20214;-87
2022/03/01 20:49:58;;;;;;;11.60;8.70;;;;;;;4.36;43.79;99707.38;6948364;28;20607;-86
2022/03/01 20:53:23;;;;;;;12.57;9.90;;;;;;;4.19;43.57;99668.09;6984323;28;20267;-91
2022/03/01 20:56:45;;;;;;;14.60;9.33;;;;;;;4.86;42.96;99770.22;6971835;28;20593;-88
2022/03/01 21:00:10;;;;;;;34.00;23.07;;;;;;;4.13;44.38;99746.06;6982295;28;20232;-86
2022/03/01 21:03:32;;;;;;;46.70;22.60;;;;;;;4.56;43.51;99775.81;6981645;28;20238;-86
2022/03/01 21:06:56;;;;;;;34.20;16.13;;;;;;;4.15;44.08;99727.25;6967404;28;20585;-86
2022/03/01 21:28:25;;;;;;;15.30;10.33;;;;;;;4.91;43.12;99765.28;6856008;28;20190;-86
2022/03/01 21:35:40;;;;;;;15.43;10.47;;;;;;;4.83;42.73;99746.47;6844009;29;20239;-86
2022/03/01 21:39:04;;;;;;;16.07;11.07;;;;;;;4.18;43.16;99642.41;6874116;28;20233;-87
2022/03/01 21:42:31;;;;;;;13.97;10.63;;;;;;;4.60;42.98;99730.94;6872349;28;20230;-86
2022/03/01 21:46:04;;;;;;;14.50;9.63;;;;;;;4.83;42.50;99734.94;6873292;28;20256;-87
2022/03/01 21:49:31;;;;;;;10.57;8.50;;;;;;;4.59;42.79;99730.09;6890321;28;20221;-87
2022/03/01 21:52:54;;;;;;;12.47;8.90;;;;;;;3.76;43.02;99638.41;6975968;28;20247;-87
2022/03/01 21:56:16;;;;;;;11.27;8.63;;;;;;;3.61;43.74;99625.66;6959978;28;20207;-87
2022/03/01 21:59:41;;;;;;;12.10;8.13;;;;;;;4.62;42.35;99718.28;6959026;28;20211;-87
2022/03/01 22:03:03;;;;;;;15.17;8.97;;;;;;;4.86;41.97;99726.63;6960362;28;20289;-87
2022/03/01 22:06:27;;;;;;;13.43;8.87;;;;;;;4.71;42.87;99730.78;6967499;28;20208;-88
2022/03/01 22:09:49;;;;;;;13.17;9.27;;;;;;;4.34;42.69;99722.72;6965817;28;20568;-88
2022/03/01 22:13:11;;;;;;;13.17;9.47;;;;;;;4.58;42.85;99717.75;6965683;28;20238;-88
2022/03/01 22:16:36;;;;;;;15.47;9.40;;;;;;;4.93;41.41;99717.88;6965029;28;20199;-88
2022/03/01 22:19:58;;;;;;;12.53;9.40;;;;;;;4.09;42.92;99637.94;6962928;28;20213;-86
2022/03/01 22:23:21;;;;;;;12.60;9.27;;;;;;;4.55;43.06;99722.53;6963586;28;20261;-87
2022/03/01 22:26:44;;;;;;;14.63;9.60;;;;;;;4.65;42.74;99713.50;6963750;28;20296;-89
2022/03/01 22:30:10;;;;;;;13.30;9.40;;;;;;;4.68;42.79;99707.03;6967547;28;20230;-88
2022/03/01 22:33:32;;;;;;;11.50;9.00;;;;;;;4.45;43.69;99713.69;6967384;28;20230;-88
2022/03/01 22:36:55;;;;;;;21.60;13.83;;;;;;;4.18;44.51;99702.97;6966696;28;20216;-88
2022/03/01 22:40:21;;;;;;;21.10;13.43;;;;;;;4.46;43.80;99704.69;6965524;28;20211;-88
2022/03/01 22:43:47;;;;;;;15.93;10.70;;;;;;;4.39;44.72;99707.13;6966338;28;20225;-88
2022/03/01 22:47:15;;;;;;;15.90;10.57;;;;;;;4.00;44.70;99653.94;6965584;28;20217;-87
2022/03/01 22:50:41;;;;;;;13.13;9.30;;;;;;;4.03;44.58;99659.00;6964865;28;20227;-88
2022/03/01 22:54:09;;;;;;;13.13;9.27;;;;;;;4.37;44.75;99708.25;6965474;28;20232;-87
2022/03/01 22:57:40;;;;;;;14.57;10.80;;;;;;;4.53;44.02;99700.44;6965744;28;20207;-87
2022/03/01 23:01:20;;;;;;;12.73;9.67;;;;;;;4.49;43.67;99667.88;6964732;28;20251;-87
2022/03/01 23:04:41;;;;;;;11.50;9.50;;;;;;;4.85;43.16;99693.72;6968088;28;20220;-88
2022/03/01 23:08:08;;;;;;;12.70;10.00;;;;;;;4.65;43.07;99689.44;6966916;28;20713;-89
2022/03/01 23:11:29;;;;;;;13.37;9.67;;;;;;;4.21;44.57;99697.31;6969378;28;20240;-87
2022/03/01 23:14:53;;;;;;;14.33;9.47;;;;;;;4.51;44.12;99692.59;6995000;28;20202;-89
2022/03/01 23:18:16;;;;;;;13.43;8.63;;;;;;;4.71;43.40;99699.56;6993372;28;20212;-89
2022/03/01 23:21:49;;;;;;;12.13;9.67;;;;;;;4.74;43.46;99704.63;6990187;28;20237;-88
2022/03/01 23:25:12;;;;;;;10.80;8.87;;;;;;;4.44;43.15;99631.91;6990378;28;20696;-86
2022/03/01 23:32:11;;;;;;;12.80;8.67;;;;;;;4.56;43.34;99694.84;6993718;28;20272;-87
2022/03/01 23:39:47;;;;;;;15.47;9.17;;;;;;;4.20;44.77;99676.94;6960934;28;20252;-87
2022/03/01 23:43:12;;;;;;;13.80;9.33;;;;;;;4.09;44.63;99693.97;6991992;28;20220;-90
2022/03/01 23:46:35;;;;;;;12.00;8.80;;;;;;;3.81;44.09;99565.97;6993200;28;20195;-86
2022/03/01 23:50:21;;;;;;;20.47;13.33;;;;;;;3.96;45.09;99676.56;6988924;28;20199;-86
2022/03/01 23:53:42;;;;;;;18.97;12.43;;;;;;;3.98;45.89;99674.59;6977217;28;20231;-86
2022/03/01 23:57:07;;;;;;;15.93;10.60;;;;;;;3.90;45.77;99685.16;6990704;28;20553;-87
